Time;durP1;ratioP1;P1;durP2;ratioP2;P2;SDS_P1;SDS_P2;PMS_P1;PMS_P2;Temp;Humidity;BMP_temperature;BMP_pressure;BME280_temperature;BME280_humidity;BME280_pressure;Samples;Min_cycle;Max_cycle;Signal;HPM_P1;HPM_P2
2023/08/05 00:00:14;;;;;;;8.20;3.47;;;18.70;77.10;;;;;;5045958;28;20021;-68
2023/08/05 00:02:39;;;;;;;7.78;3.75;;;18.70;77.10;;;;;;5053035;28;20084;-69
2023/08/05 00:05:07;;;;;;;7.13;3.80;;;18.70;77.00;;;;;;5028576;28;20018;-68
2023/08/05 00:07:33;;;;;;;7.25;3.45;;;18.60;77.10;;;;;;5044863;28;20069;-69
2023/08/05 00:09:59;;;;;;;6.82;3.22;;;18.70;77.20;;;;;;5053120;28;20053;-68
2023/08/05 00:12:24;;;;;;;7.70;2.85;;;18.60;77.10;;;;;;5040903;28;20416;-69
2023/08/05 00:14:50;;;;;;;8.05;3.40;;;18.60;77.10;;;;;;5026240;28;20026;-69
2023/08/05 00:17:16;;;;;;;7.32;3.33;;;18.60;77.10;;;;;;5047940;28;20123;-69
2023/08/05 00:19:43;;;;;;;8.52;3.35;;;18.60;77.10;;;;;;5045389;28;20100;-68
2023/08/05 00:22:08;;;;;;;7.60;3.33;;;18.60;77.10;;;;;;5053562;28;20104;-68
2023/08/05 00:24:34;;;;;;;7.68;3.58;;;18.60;77.10;;;;;;5049899;28;20112;-68
2023/08/05 00:27:00;;;;;;;7.65;2.90;;;18.60;77.10;;;;;;5046178;28;20039;-68
2023/08/05 00:29:26;;;;;;;6.70;3.13;;;18.60;77.00;;;;;;5052877;28;20025;-68
2023/08/05 00:31:51;;;;;;;6.97;3.05;;;18.60;77.10;;;;;;5052568;28;20347;-68
2023/08/05 00:34:17;;;;;;;7.63;3.05;;;18.50;77.00;;;;;;5051112;28;20458;-68
2023/08/05 00:36:43;;;;;;;7.20;3.00;;;18.50;77.00;;;;;;5055511;28;20438;-69
2023/08/05 00:39:09;;;;;;;7.25;3.28;;;18.50;77.60;;;;;;5035708;28;20033;-68
2023/08/05 00:41:34;;;;;;;7.53;3.13;;;18.50;77.00;;;;;;5049770;28;20124;-68
2023/08/05 00:44:00;;;;;;;7.15;3.10;;;18.50;77.00;;;;;;5038036;28;20462;-69
2023/08/05 00:46:26;;;;;;;7.95;3.35;;;18.50;77.10;;;;;;5032895;28;20036;-68
2023/08/05 00:48:53;;;;;;;6.70;3.35;;;18.50;77.00;;;;;;5046022;28;20040;-69
2023/08/05 00:51:20;;;;;;;7.82;3.20;;;18.50;77.10;;;;;;5066072;28;20013;-69
2023/08/05 00:53:47;;;;;;;5.85;3.08;;;18.50;77.00;;;;;;5049149;28;20037;-69
2023/08/05 00:56:15;;;;;;;7.68;3.20;;;18.50;77.00;;;;;;5051908;28;20358;-68
2023/08/05 00:58:44;;;;;;;5.68;2.90;;;18.50;77.00;;;;;;5036599;28;20443;-69
2023/08/05 01:01:10;;;;;;;7.15;3.03;;;18.50;77.00;;;;;;5045828;28;20060;-68
2023/08/05 01:03:37;;;;;;;7.93;3.20;;;18.50;77.00;;;;;;5041333;28;20056;-68
2023/08/05 01:06:06;;;;;;;7.97;3.22;;;18.50;77.00;;;;;;5053446;28;20025;-68
2023/08/05 01:08:34;;;;;;;7.70;3.53;;;18.50;77.00;;;;;;5051850;28;20445;-68
2023/08/05 01:11:01;;;;;;;8.23;3.28;;;18.50;76.90;;;;;;5049685;28;20086;-68
2023/08/05 01:13:29;;;;;;;7.13;3.22;;;18.50;76.90;;;;;;5052812;28;20127;-68
2023/08/05 01:15:55;;;;;;;6.43;3.10;;;18.50;76.90;;;;;;5046430;28;20361;-68
2023/08/05 01:18:23;;;;;;;7.32;3.00;;;18.40;76.90;;;;;;5049033;28;20060;-68
2023/08/05 01:20:53;;;;;;;7.70;3.03;;;18.40;76.90;;;;;;5042689;28;20029;-68
2023/08/05 01:23:27;;;;;;;6.20;3.07;;;18.40;76.90;;;;;;5048888;28;20064;-68
2023/08/05 01:25:53;;;;;;;11.13;3.58;;;18.40;77.00;;;;;;5052519;28;20511;-68
2023/08/05 01:28:20;;;;;;;7.97;3.17;;;18.40;77.00;;;;;;5053938;28;20024;-68
2023/08/05 01:30:47;;;;;;;6.40;2.92;;;18.40;77.00;;;;;;5053558;28;20036;-68
2023/08/05 01:33:15;;;;;;;7.10;3.10;;;18.40;77.10;;;;;;5051912;28;20037;-68
2023/08/05 01:35:47;;;;;;;7.00;2.92;;;18.40;77.10;;;;;;5065662;28;20029;-68
2023/08/05 01:38:15;;;;;;;6.97;2.90;;;18.40;77.00;;;;;;5045783;28;20067;-68
2023/08/05 01:40:41;;;;;;;8.77;3.28;;;18.30;76.90;;;;;;5054029;28;20461;-68
2023/08/05 01:43:07;;;;;;;7.75;3.42;;;18.40;77.10;;;;;;5027854;28;20025;-68
2023/08/05 01:45:33;;;;;;;6.45;3.17;;;18.30;77.10;;;;;;5028159;28;20098;-68
2023/08/05 01:47:59;;;;;;;6.60;3.20;;;18.30;77.20;;;;;;5026995;28;20477;-69
2023/08/05 01:50:25;;;;;;;5.18;2.72;;;18.30;77.30;;;;;;5051484;28;20119;-68
2023/08/05 01:52:53;;;;;;;7.13;3.10;;;18.30;77.30;;;;;;5041506;28;20071;-68
2023/08/05 01:55:19;;;;;;;8.30;3.25;;;18.30;77.40;;;;;;5049848;28;20021;-68
2023/08/05 01:57:46;;;;;;;6.13;3.05;;;18.30;77.40;;;;;;5036223;28;20045;-68
2023/08/05 02:00:12;;;;;;;6.20;3.08;;;18.30;77.40;;;;;;5051187;28;20036;-68
2023/08/05 02:02:41;;;;;;;9.50;3.45;;;18.30;77.50;;;;;;5040252;28;20454;-68
2023/08/05 02:05:07;;;;;;;7.72;3.08;;;18.30;77.50;;;;;;5046556;28;20059;-68
2023/08/05 02:07:33;;;;;;;7.10;3.63;;;18.20;77.50;;;;;;5035986;28;20022;-68
2023/08/05 02:09:59;;;;;;;7.97;3.10;;;18.30;77.50;;;;;;5035385;28;20021;-68
2023/08/05 02:12:24;;;;;;;7.43;3.53;;;18.20;77.50;;;;;;5039360;28;20025;-68
2023/08/05 02:14:51;;;;;;;7.28;3.53;;;18.30;77.50;;;;;;5030735;28;20340;-68
2023/08/05 02:17:16;;;;;;;8.48;3.28;;;18.30;77.60;;;;;;5026755;28;20109;-69
2023/08/05 02:19:42;;;;;;;6.95;3.25;;;18.20;77.50;;;;;;5047963;28;20028;-68
2023/08/05 02:22:08;;;;;;;7.47;3.38;;;18.20;77.60;;;;;;5048350;28;20033;-68
2023/08/05 02:24:34;;;;;;;6.78;3.42;;;18.20;77.60;;;;;;5046615;28;20072;-68
2023/08/05 02:26:59;;;;;;;8.48;3.47;;;18.30;77.60;;;;;;5048154;28;20120;-68
2023/08/05 02:29:25;;;;;;;6.15;3.25;;;18.20;77.60;;;;;;5042064;28;20393;-68
2023/08/05 02:31:51;;;;;;;6.45;3.17;;;18.20;77.60;;;;;;5066851;28;20147;-69
2023/08/05 02:34:16;;;;;;;6.72;3.67;;;18.20;77.70;;;;;;5042281;28;20031;-68
2023/08/05 02:36:42;;;;;;;6.55;3.35;;;18.20;77.80;;;;;;5052232;28;20126;-68
2023/08/05 02:39:08;;;;;;;7.13;3.67;;;18.20;77.80;;;;;;5069107;28;20036;-68
2023/08/05 02:41:34;;;;;;;12.43;4.05;;;18.20;77.80;;;;;;5030409;28;20173;-68
2023/08/05 02:43:59;;;;;;;7.40;3.50;;;18.20;77.70;;;;;;5039658;28;20078;-68
2023/08/05 02:46:25;;;;;;;6.85;3.60;;;18.20;77.80;;;;;;5047273;28;20415;-68
2023/08/05 02:48:51;;;;;;;6.88;3.08;;;18.20;77.80;;;;;;5039581;28;20021;-68
2023/08/05 02:51:17;;;;;;;8.68;3.33;;;18.20;77.80;;;;;;5043216;28;20022;-69
2023/08/05 02:53:42;;;;;;;7.65;3.42;;;18.20;77.80;;;;;;5048296;28;20037;-68
2023/08/05 02:56:08;;;;;;;7.40;3.38;;;18.10;77.80;;;;;;5047829;28;20025;-68
2023/08/05 02:58:34;;;;;;;9.85;3.65;;;18.10;77.80;;;;;;5042171;28;20041;-68
2023/08/05 03:01:08;;;;;;;8.25;3.55;;;18.10;77.90;;;;;;5052302;28;20029;-68
2023/08/05 03:03:37;;;;;;;6.65;3.50;;;18.10;78.00;;;;;;5052804;28;20029;-68
2023/08/05 03:06:04;;;;;;;9.25;3.90;;;18.10;78.00;;;;;;5048814;28;20437;-68
2023/08/05 03:08:30;;;;;;;7.47;3.67;;;18.10;78.00;;;;;;5041797;28;20370;-68
2023/08/05 03:10:58;;;;;;;8.30;3.70;;;18.10;78.10;;;;;;5025246;28;20508;-68
2023/08/05 03:13:24;;;;;;;9.38;3.83;;;18.10;78.10;;;;;;5050910;28;20160;-68
2023/08/05 03:15:50;;;;;;;8.05;3.92;;;18.10;78.20;;;;;;5052582;28;20028;-68
2023/08/05 03:18:17;;;;;;;7.75;4.00;;;18.10;78.20;;;;;;5033395;28;20045;-68
2023/08/05 03:20:44;;;;;;;9.15;3.90;;;18.00;78.20;;;;;;5041193;28;20416;-69
2023/08/05 03:23:14;;;;;;;9.02;3.88;;;18.00;78.30;;;;;;5035162;28;20116;-68
2023/08/05 03:25:43;;;;;;;6.70;3.47;;;18.00;78.40;;;;;;5036406;28;20392;-68
2023/08/05 03:28:08;;;;;;;8.18;3.92;;;17.90;78.40;;;;;;5035276;28;20083;-68
2023/08/05 03:30:39;;;;;;;7.65;3.78;;;18.00;78.60;;;;;;5040109;28;20021;-68
2023/08/05 03:33:04;;;;;;;8.15;3.75;;;17.90;78.60;;;;;;5051937;28;20079;-68
2023/08/05 03:35:33;;;;;;;9.07;3.92;;;17.90;78.60;;;;;;5035915;28;20035;-68
2023/08/05 03:37:59;;;;;;;6.28;3.42;;;17.90;79.40;;;;;;5036733;28;20083;-68
2023/08/05 03:40:25;;;;;;;7.65;3.58;;;17.80;78.70;;;;;;5048794;28;20439;-68
2023/08/05 03:42:51;;;;;;;8.10;3.47;;;17.90;78.80;;;;;;5028702;28;20063;-68
2023/08/05 03:45:18;;;;;;;9.38;3.65;;;17.80;78.70;;;;;;5047678;28;20025;-68
2023/08/05 03:47:44;;;;;;;8.00;3.80;;;17.80;78.80;;;;;;5052304;28;20032;-68
2023/08/05 03:50:09;;;;;;;8.68;4.13;;;17.70;78.80;;;;;;5034352;28;20029;-68
2023/08/05 03:52:36;;;;;;;7.95;4.55;;;17.70;78.90;;;;;;5055243;28;20354;-68
2023/08/05 03:55:02;;;;;;;7.93;3.88;;;17.70;79.00;;;;;;5037942;28;20025;-68
2023/08/05 03:57:28;;;;;;;6.40;3.60;;;17.70;79.00;;;;;;5043542;28;20021;-68
2023/08/05 03:59:56;;;;;;;6.82;3.50;;;17.70;79.00;;;;;;5033828;28;20091;-68
2023/08/05 04:02:22;;;;;;;7.97;4.00;;;17.70;79.10;;;;;;5040857;28;20473;-68
2023/08/05 04:04:48;;;;;;;6.72;3.50;;;17.60;79.10;;;;;;5034195;28;20091;-68
2023/08/05 04:07:18;;;;;;;7.32;3.67;;;17.60;79.20;;;;;;5049322;28;20031;-68
2023/08/05 04:09:44;;;;;;;6.43;3.63;;;17.60;79.20;;;;;;5055653;28;20108;-68
2023/08/05 04:12:10;;;;;;;8.88;4.00;;;17.60;79.30;;;;;;5038902;28;20545;-68
2023/08/05 04:14:39;;;;;;;10.50;3.80;;;17.60;79.30;;;;;;5047313;28;20200;-68
2023/08/05 04:17:05;;;;;;;8.07;3.70;;;17.60;79.40;;;;;;5029123;28;20024;-68
2023/08/05 04:19:32;;;;;;;7.10;3.45;;;17.60;80.10;;;;;;5056605;28;20032;-68
2023/08/05 04:22:01;;;;;;;8.10;3.65;;;17.70;79.50;;;;;;5030172;28;20462;-68
2023/08/05 04:24:28;;;;;;;8.05;4.18;;;17.70;79.60;;;;;;5042303;28;20037;-68
2023/08/05 04:26:55;;;;;;;9.75;4.20;;;17.70;79.60;;;;;;5043286;28;20024;-68
2023/08/05 04:29:24;;;;;;;5.45;3.25;;;17.70;79.60;;;;;;5041805;28;20429;-68
2023/08/05 04:31:51;;;;;;;8.65;3.80;;;17.70;79.60;;;;;;5031440;28;20399;-68
2023/08/05 04:34:18;;;;;;;7.60;3.80;;;17.80;79.60;;;;;;5039922;28;20029;-68
2023/08/05 04:36:51;;;;;;;8.63;4.35;;;17.80;79.50;;;;;;5047384;28;20037;-68
2023/08/05 04:39:22;;;;;;;9.13;3.90;;;17.80;79.50;;;;;;5060367;28;20323;-68
2023/08/05 04:41:48;;;;;;;8.77;3.80;;;17.80;79.50;;;;;;5044003;28;20080;-68
2023/08/05 04:44:14;;;;;;;8.98;4.53;;;17.80;79.50;;;;;;5050049;28;20076;-68
2023/08/05 04:46:40;;;;;;;7.80;4.03;;;17.90;79.50;;;;;;5052290;28;20048;-68
2023/08/05 04:49:08;;;;;;;7.28;3.72;;;17.90;79.60;;;;;;5040257;28;20036;-68
2023/08/05 04:51:37;;;;;;;7.65;4.00;;;17.90;79.60;;;;;;5041594;28;20039;-68
2023/08/05 04:54:04;;;;;;;8.25;4.10;;;17.90;79.60;;;;;;5050583;28;21357;-68
2023/08/05 04:56:30;;;;;;;8.13;4.38;;;18.00;79.60;;;;;;5042828;28;20346;-68
2023/08/05 04:58:56;;;;;;;9.77;4.57;;;18.00;79.50;;;;;;5050300;28;20120;-69
2023/08/05 05:01:22;;;;;;;8.25;4.22;;;18.00;79.50;;;;;;5047483;28;21482;-68
2023/08/05 05:03:49;;;;;;;8.70;4.47;;;18.00;79.50;;;;;;5033348;28;20166;-68
2023/08/05 05:06:14;;;;;;;8.27;4.60;;;18.00;79.40;;;;;;5036512;28;20026;-68
2023/08/05 05:08:40;;;;;;;8.77;4.70;;;18.10;79.40;;;;;;5044960;28;20018;-68
2023/08/05 05:11:09;;;;;;;9.13;4.97;;;18.10;79.40;;;;;;5044469;28;20043;-68
2023/08/05 05:13:35;;;;;;;9.15;5.18;;;18.10;79.40;;;;;;5030057;28;20353;-68
2023/08/05 05:16:04;;;;;;;9.02;5.53;;;18.10;79.40;;;;;;5035399;28;20040;-68
2023/08/05 05:18:30;;;;;;;10.77;5.90;;;18.10;79.30;;;;;;5053086;28;20365;-69
2023/08/05 05:20:55;;;;;;;8.88;5.13;;;18.10;79.30;;;;;;5054354;28;20123;-68
2023/08/05 05:23:21;;;;;;;9.90;5.63;;;18.10;79.30;;;;;;5044843;28;20420;-68
2023/08/05 05:25:47;;;;;;;9.75;4.93;;;18.20;79.20;;;;;;5050989;28;20075;-68
2023/08/05 05:28:13;;;;;;;9.35;6.00;;;18.20;79.10;;;;;;5060884;28;20033;-68
2023/08/05 05:30:38;;;;;;;9.45;5.28;;;18.20;79.10;;;;;;5041806;28;20026;-69
2023/08/05 05:33:04;;;;;;;10.10;5.72;;;18.20;79.10;;;;;;5055085;28;20032;-69
2023/08/05 05:35:30;;;;;;;10.18;6.00;;;18.20;79.20;;;;;;5054414;28;20120;-68
2023/08/05 05:37:56;;;;;;;10.18;6.10;;;18.20;79.20;;;;;;5036699;28;20044;-68
2023/08/05 05:40:22;;;;;;;9.75;5.65;;;18.20;79.20;;;;;;5055121;28;20033;-69
2023/08/05 05:42:51;;;;;;;9.82;5.55;;;18.20;79.10;;;;;;5054804;28;20029;-69
2023/08/05 05:45:17;;;;;;;10.23;6.60;;;18.20;79.00;;;;;;5048750;28;20041;-69
2023/08/05 05:47:44;;;;;;;12.48;6.32;;;18.30;78.90;;;;;;5048913;28;20025;-69
2023/08/05 05:50:10;;;;;;;10.88;6.90;;;18.30;78.90;;;;;;5052727;28;20350;-69
2023/08/05 05:52:36;;;;;;;9.48;6.00;;;18.30;78.80;;;;;;5054177;28;20028;-68
2023/08/05 05:55:03;;;;;;;12.32;6.40;;;18.30;78.90;;;;;;5052537;28;20024;-69
2023/08/05 05:57:29;;;;;;;10.80;6.20;;;18.30;78.90;;;;;;5055004;28;20017;-68
2023/08/05 05:59:56;;;;;;;11.63;6.22;;;18.30;78.90;;;;;;5050993;28;20441;-68
2023/08/05 06:02:22;;;;;;;11.38;6.25;;;18.40;79.00;;;;;;5054512;28;20021;-68
2023/08/05 06:04:48;;;;;;;11.50;6.78;;;18.40;79.00;;;;;;5050954;28;20017;-68
2023/08/05 06:07:14;;;;;;;10.27;6.28;;;18.40;79.00;;;;;;5030343;28;20091;-68
2023/08/05 06:09:39;;;;;;;11.70;6.30;;;18.40;78.90;;;;;;5035491;28;20064;-68
2023/08/05 06:12:09;;;;;;;10.77;6.25;;;18.50;78.90;;;;;;5047417;28;20049;-68
2023/08/05 06:14:36;;;;;;;9.85;6.03;;;18.50;78.70;;;;;;5046036;28;20031;-68
2023/08/05 06:17:03;;;;;;;11.25;6.13;;;18.60;78.60;;;;;;5046179;28;20037;-69
2023/08/05 06:19:28;;;;;;;14.95;6.22;;;18.60;78.50;;;;;;5044939;28;20038;-67
2023/08/05 06:21:54;;;;;;;10.00;5.72;;;18.60;78.40;;;;;;5040268;28;20109;-67
2023/08/05 06:24:20;;;;;;;9.18;5.82;;;18.60;78.30;;;;;;5046175;28;20514;-68
2023/08/05 06:26:45;;;;;;;12.05;6.05;;;18.70;78.30;;;;;;5041635;28;20033;-67
2023/08/05 06:29:11;;;;;;;11.38;6.25;;;18.70;78.30;;;;;;5041530;28;20061;-69
2023/08/05 06:31:37;;;;;;;9.27;5.50;;;18.70;78.30;;;;;;5038862;28;20112;-69
2023/08/05 06:34:03;;;;;;;12.95;6.68;;;18.80;78.30;;;;;;5056240;28;20025;-68
2023/08/05 06:36:28;;;;;;;11.65;5.85;;;18.80;78.20;;;;;;5052886;28;20029;-69
2023/08/05 06:38:54;;;;;;;8.90;5.82;;;18.90;78.10;;;;;;5037735;28;20025;-69
2023/08/05 06:41:20;;;;;;;12.63;6.50;;;19.00;78.00;;;;;;5036788;28;20114;-69
2023/08/05 06:43:46;;;;;;;9.95;5.93;;;19.10;78.00;;;;;;5049491;28;20040;-68
2023/08/05 06:46:11;;;;;;;8.85;5.63;;;19.10;77.70;;;;;;5046743;28;20116;-68
2023/08/05 06:48:37;;;;;;;10.18;5.90;;;19.20;77.50;;;;;;5038290;28;20026;-69
2023/08/05 06:51:03;;;;;;;10.50;5.70;;;19.30;78.10;;;;;;5027961;28;20454;-68
2023/08/05 06:53:29;;;;;;;11.75;6.07;;;19.30;77.40;;;;;;5027208;28;20017;-68
2023/08/05 06:56:02;;;;;;;11.18;7.07;;;19.40;77.20;;;;;;5049589;28;20021;-68
2023/08/05 06:58:28;;;;;;;16.73;7.72;;;19.50;76.90;;;;;;5039615;28;20451;-68
2023/08/05 07:00:53;;;;;;;10.73;6.88;;;19.70;76.60;;;;;;5053275;28;20183;-68
2023/08/05 07:03:19;;;;;;;13.35;7.85;;;19.80;76.40;;;;;;5031001;28;20166;-69
2023/08/05 07:05:45;;;;;;;13.55;7.85;;;19.80;76.10;;;;;;5038285;28;20057;-68
2023/08/05 07:08:11;;;;;;;11.80;8.55;;;19.90;76.00;;;;;;5034593;28;20024;-68
2023/08/05 07:10:37;;;;;;;13.88;8.82;;;20.00;76.00;;;;;;5051260;28;20052;-68
2023/08/05 07:13:05;;;;;;;14.52;9.35;;;20.10;75.80;;;;;;5052770;28;20025;-68
2023/08/05 07:15:36;;;;;;;14.15;9.27;;;20.10;75.60;;;;;;5054126;28;20117;-68
2023/08/05 07:18:03;;;;;;;15.95;10.68;;;20.10;75.40;;;;;;5053648;28;20107;-69
2023/08/05 07:20:29;;;;;;;14.13;9.20;;;20.00;75.50;;;;;;5048544;28;20090;-68
2023/08/05 07:22:54;;;;;;;12.63;9.38;;;19.90;75.70;;;;;;5053195;28;20065;-69
2023/08/05 07:25:20;;;;;;;13.05;9.13;;;19.90;76.00;;;;;;5040064;28;20060;-69
2023/08/05 07:27:46;;;;;;;12.45;9.10;;;20.00;75.80;;;;;;5057668;28;20029;-69
2023/08/05 07:30:12;;;;;;;12.88;9.20;;;20.20;75.50;;;;;;5038646;28;20024;-69
2023/08/05 07:32:38;;;;;;;12.82;8.63;;;20.20;75.10;;;;;;5057267;28;20059;-68
2023/08/05 07:35:04;;;;;;;13.15;9.35;;;20.30;74.80;;;;;;5057908;28;20308;-68
2023/08/05 07:37:31;;;;;;;13.00;8.52;;;20.40;74.40;;;;;;5056365;28;20029;-69
2023/08/05 07:39:57;;;;;;;14.70;8.32;;;20.40;74.10;;;;;;5056309;28;20021;-68
2023/08/05 07:42:25;;;;;;;11.95;7.45;;;20.50;74.00;;;;;;5056488;28;20036;-69
2023/08/05 07:44:52;;;;;;;12.70;8.07;;;20.60;73.50;;;;;;5040399;28;20331;-68
2023/08/05 07:47:18;;;;;;;9.52;6.90;;;20.80;72.80;;;;;;5057491;28;20100;-69
2023/08/05 07:49:44;;;;;;;9.95;6.32;;;21.00;72.60;;;;;;5056541;28;20117;-69
2023/08/05 07:52:10;;;;;;;10.18;5.50;;;21.10;72.20;;;;;;5040619;28;20112;-69
2023/08/05 07:54:36;;;;;;;9.50;6.22;;;21.10;72.20;;;;;;5032903;28;20025;-69
2023/08/05 07:57:02;;;;;;;10.80;6.22;;;20.90;72.00;;;;;;5050358;28;20032;-69
2023/08/05 07:59:28;;;;;;;9.30;5.57;;;20.80;72.00;;;;;;5054010;28;20021;-69
2023/08/05 08:01:55;;;;;;;10.00;5.65;;;20.80;72.00;;;;;;5021459;28;20493;-69
2023/08/05 08:04:21;;;;;;;8.65;5.40;;;20.70;72.10;;;;;;5052588;28;20038;-69
2023/08/05 08:06:47;;;;;;;10.77;5.60;;;20.60;72.30;;;;;;5042556;28;20020;-68
2023/08/05 08:09:13;;;;;;;11.60;5.97;;;20.60;72.20;;;;;;5043798;28;20517;-68
2023/08/05 08:11:40;;;;;;;9.30;5.40;;;20.50;72.10;;;;;;5055986;28;20411;-69
2023/08/05 08:14:06;;;;;;;8.65;4.78;;;20.50;72.10;;;;;;5056746;28;20055;-69
2023/08/05 08:16:32;;;;;;;9.20;5.35;;;20.40;71.90;;;;;;5054285;28;20500;-68
2023/08/05 08:18:58;;;;;;;7.30;4.75;;;20.30;71.80;;;;;;5055454;28;20044;-68
2023/08/05 08:21:24;;;;;;;10.15;4.90;;;20.20;71.80;;;;;;5046645;28;20036;-68
2023/08/05 08:23:50;;;;;;;7.60;3.80;;;20.30;71.80;;;;;;5046975;28;20037;-68
2023/08/05 08:26:15;;;;;;;6.50;3.60;;;20.30;71.40;;;;;;5045367;28;20024;-69
2023/08/05 08:28:41;;;;;;;7.47;3.13;;;20.30;71.30;;;;;;5044361;28;20021;-68
2023/08/05 08:31:07;;;;;;;6.72;3.13;;;20.50;70.80;;;;;;5047738;28;20025;-68
2023/08/05 08:33:33;;;;;;;7.75;3.25;;;20.70;70.30;;;;;;5045191;28;20111;-68
2023/08/05 08:35:59;;;;;;;5.97;2.90;;;21.00;69.50;;;;;;5054066;28;20090;-68
2023/08/05 08:38:25;;;;;;;6.68;2.80;;;21.30;68.50;;;;;;5025904;28;20080;-69
2023/08/05 08:41:02;;;;;;;6.28;3.25;;;21.40;68.00;;;;;;5038361;28;20035;-69
2023/08/05 08:43:28;;;;;;;5.90;3.08;;;21.40;67.50;;;;;;5043819;28;20095;-69
2023/08/05 08:45:54;;;;;;;7.88;3.70;;;21.30;67.70;;;;;;5043517;28;20390;-68
2023/08/05 08:48:20;;;;;;;7.97;4.18;;;21.20;67.60;;;;;;5041058;28;20353;-69
2023/08/05 08:50:48;;;;;;;7.40;4.00;;;21.00;67.60;;;;;;5030865;28;20029;-69
2023/08/05 08:53:15;;;;;;;8.23;4.97;;;20.90;67.80;;;;;;5049746;28;20043;-68
2023/08/05 08:55:44;;;;;;;7.60;4.00;;;20.80;67.90;;;;;;5043601;28;20032;-69
2023/08/05 08:58:10;;;;;;;7.00;4.05;;;20.80;67.90;;;;;;5046506;28;20033;-68
2023/08/05 09:00:37;;;;;;;8.80;4.40;;;20.70;68.10;;;;;;5028011;28;20022;-69
2023/08/05 09:03:04;;;;;;;7.97;4.22;;;20.80;67.90;;;;;;5062284;28;20028;-69
2023/08/05 09:05:48;;;;;;;8.43;4.75;;;20.70;67.80;;;;;;5059469;28;20029;-68
2023/08/05 09:08:15;;;;;;;7.80;4.70;;;20.70;67.70;;;;;;5045863;28;20028;-68
2023/08/05 09:10:43;;;;;;;8.65;4.20;;;20.80;67.70;;;;;;5048721;28;20434;-68
2023/08/05 09:13:09;;;;;;;6.93;4.20;;;20.90;67.50;;;;;;5048343;28;20037;-68
2023/08/05 09:15:39;;;;;;;7.35;3.97;;;20.80;67.50;;;;;;5046905;28;20074;-68
2023/08/05 09:18:07;;;;;;;7.47;4.45;;;21.10;67.40;;;;;;5044683;28;20033;-68
2023/08/05 09:20:36;;;;;;;8.65;4.30;;;21.30;67.00;;;;;;5045101;28;20415;-68
2023/08/05 09:23:04;;;;;;;8.43;4.15;;;21.40;66.50;;;;;;5063609;28;20029;-67
2023/08/05 09:25:31;;;;;;;8.32;4.82;;;21.60;66.30;;;;;;5046349;28;20025;-68
2023/08/05 09:27:59;;;;;;;7.57;3.85;;;22.00;65.70;;;;;;5040614;28;20474;-68
2023/08/05 09:30:26;;;;;;;6.45;3.45;;;22.40;65.20;;;;;;5050654;28;20418;-67
2023/08/05 09:32:54;;;;;;;8.23;4.00;;;22.70;64.30;;;;;;5041213;28;20021;-65
2023/08/05 09:35:20;;;;;;;7.22;3.50;;;23.00;63.10;;;;;;5045501;28;20025;-66
2023/08/05 09:37:48;;;;;;;6.68;3.15;;;23.30;62.90;;;;;;5059132;28;20032;-66
2023/08/05 09:40:33;;;;;;;7.38;4.00;;;23.60;62.40;;;;;;5041634;28;20099;-64
2023/08/05 09:42:59;;;;;;;7.75;3.63;;;23.90;61.00;;;;;;5041443;28;20060;-68
2023/08/05 09:45:28;;;;;;;6.32;3.05;;;23.90;60.90;;;;;;5048511;28;20080;-67
2023/08/05 09:48:04;;;;;;;7.05;4.22;;;23.80;60.60;;;;;;5046095;28;20021;-68
2023/08/05 09:50:31;;;;;;;6.78;3.85;;;23.70;60.50;;;;;;5021907;28;20115;-68
2023/08/05 09:53:00;;;;;;;7.75;3.67;;;23.50;60.50;;;;;;5041750;28;20029;-67
2023/08/05 09:55:29;;;;;;;7.25;3.80;;;23.30;60.90;;;;;;5017136;28;20047;-67
2023/08/05 09:57:55;;;;;;;8.00;3.67;;;23.30;60.90;;;;;;5062187;28;20036;-73
2023/08/05 10:00:21;;;;;;;6.22;3.10;;;23.40;61.20;;;;;;5047567;28;20026;-73
2023/08/05 10:02:47;;;;;;;6.28;3.70;;;23.30;60.20;;;;;;5040649;28;20043;-73
2023/08/05 10:05:13;;;;;;;6.25;2.88;;;23.40;60.00;;;;;;5044815;28;20025;-73
2023/08/05 10:07:40;;;;;;;6.70;3.25;;;23.40;59.80;;;;;;5047002;28;20032;-73
2023/08/05 10:10:16;;;;;;;6.38;3.03;;;23.50;59.50;;;;;;5048935;28;20033;-73
2023/08/05 10:12:58;;;;;;;6.35;3.10;;;23.50;59.30;;;;;;5028805;28;20120;-73
2023/08/05 10:15:30;;;;;;;5.15;2.67;;;23.50;59.20;;;;;;5045683;28;20029;-73
2023/08/05 10:17:57;;;;;;;5.90;2.83;;;23.30;59.30;;;;;;5047289;28;20080;-73
2023/08/05 10:20:23;;;;;;;5.30;2.55;;;23.20;59.30;;;;;;5063063;28;20079;-74
2023/08/05 10:23:06;;;;;;;5.50;3.05;;;23.10;59.50;;;;;;5044012;28;20104;-73
2023/08/05 10:25:43;;;;;;;5.40;2.83;;;22.90;59.80;;;;;;5048157;28;20029;-73
2023/08/05 10:28:31;;;;;;;7.80;3.15;;;22.70;60.00;;;;;;5042018;28;20029;-73
2023/08/05 10:30:56;;;;;;;6.40;3.28;;;22.60;60.40;;;;;;5046354;28;20029;-72
2023/08/05 10:33:23;;;;;;;7.50;3.50;;;22.50;60.70;;;;;;5044807;28;20037;-75
2023/08/05 10:35:49;;;;;;;5.82;3.20;;;22.40;60.70;;;;;;5046485;28;20112;-75
2023/08/05 10:38:26;;;;;;;6.20;3.22;;;22.40;60.90;;;;;;5045061;28;20665;-74
2023/08/05 10:41:03;;;;;;;6.97;3.17;;;22.50;60.90;;;;;;5063137;28;20033;-74
2023/08/05 10:43:32;;;;;;;5.65;2.70;;;22.40;60.90;;;;;;5039095;28;20203;-74
2023/08/05 10:46:11;;;;;;;9.02;3.38;;;22.30;61.30;;;;;;5047862;28;20112;-74
2023/08/05 10:48:49;;;;;;;7.40;3.40;;;22.30;61.40;;;;;;5039547;28;20017;-73
2023/08/05 10:51:24;;;;;;;6.80;3.30;;;22.30;61.20;;;;;;5043769;28;20032;-73
2023/08/05 10:53:58;;;;;;;6.50;3.35;;;22.30;61.30;;;;;;5044799;28;20060;-74
2023/08/05 10:56:34;;;;;;;6.20;2.88;;;22.40;61.70;;;;;;5049544;28;20029;-74
2023/08/05 10:59:01;;;;;;;5.97;3.17;;;22.50;61.20;;;;;;5055834;28;20086;-74
2023/08/05 11:01:56;;;;;;;6.20;3.38;;;22.60;61.10;;;;;;5064969;28;20094;-74
2023/08/05 11:04:27;;;;;;;6.43;3.35;;;22.60;60.90;;;;;;5049759;28;20064;-74
2023/08/05 11:06:59;;;;;;;5.82;3.22;;;22.50;61.00;;;;;;5035470;28;20024;-72
2023/08/05 11:09:26;;;;;;;5.68;2.75;;;22.30;61.20;;;;;;5047646;28;20032;-71
2023/08/05 11:11:52;;;;;;;7.32;3.47;;;22.20;61.50;;;;;;5042990;28;20108;-72
2023/08/05 11:14:19;;;;;;;6.38;3.35;;;22.20;61.70;;;;;;5045928;28;20029;-73
2023/08/05 11:16:48;;;;;;;5.38;2.70;;;22.20;61.70;;;;;;5065354;28;20029;-73
2023/08/05 11:19:17;;;;;;;6.05;3.00;;;22.40;61.60;;;;;;5045676;28;20402;-73
2023/08/05 11:21:46;;;;;;;5.93;3.33;;;22.60;61.20;;;;;;5046801;28;20087;-74
2023/08/05 11:24:18;;;;;;;5.53;2.83;;;22.80;60.90;;;;;;5050663;28;20085;-73
2023/08/05 11:26:45;;;;;;;5.35;2.85;;;22.90;61.00;;;;;;5044024;28;20370;-74
2023/08/05 11:29:14;;;;;;;5.65;3.00;;;23.00;60.80;;;;;;5034315;28;20047;-74
2023/08/05 11:31:50;;;;;;;5.82;2.80;;;23.20;60.40;;;;;;5047683;28;20036;-74
2023/08/05 11:34:22;;;;;;;6.43;2.78;;;23.40;59.60;;;;;;5028202;28;20033;-74
2023/08/05 11:36:55;;;;;;;5.85;2.72;;;23.50;59.10;;;;;;5043744;28;20041;-73
2023/08/05 11:39:25;;;;;;;6.90;2.85;;;23.50;59.00;;;;;;5041911;28;20028;-72
2023/08/05 11:41:52;;;;;;;5.00;2.60;;;23.60;58.90;;;;;;5047349;28;20032;-71
2023/08/05 11:44:18;;;;;;;4.88;2.30;;;23.60;58.50;;;;;;5046089;28;20435;-71
2023/08/05 11:46:44;;;;;;;6.63;2.70;;;23.50;58.70;;;;;;5030369;28;20052;-72
2023/08/05 11:49:11;;;;;;;6.03;2.50;;;23.50;59.00;;;;;;5022067;28;20025;-73
2023/08/05 11:51:53;;;;;;;6.05;2.58;;;23.30;59.20;;;;;;5021307;28;20021;-73
2023/08/05 11:54:32;;;;;;;6.07;2.67;;;23.20;59.60;;;;;;5043443;28;20036;-75
2023/08/05 11:56:58;;;;;;;5.88;2.92;;;23.00;59.60;;;;;;5035829;28;20041;-75
2023/08/05 11:59:43;;;;;;;4.72;2.58;;;22.80;59.90;;;;;;5043807;28;20021;-74
2023/08/05 12:02:12;;;;;;;6.85;3.10;;;22.70;59.90;;;;;;5032036;28;20048;-73
2023/08/05 12:04:45;;;;;;;6.68;2.75;;;22.50;60.40;;;;;;5046854;28;20092;-74
2023/08/05 12:07:22;;;;;;;6.28;3.00;;;22.30;60.90;;;;;;5043608;28;20028;-68
2023/08/05 12:10:11;;;;;;;6.38;3.53;;;22.10;62.20;;;;;;5038375;28;20165;-69
2023/08/05 12:12:38;;;;;;;7.65;3.17;;;21.90;64.10;;;;;;5063508;28;20021;-69
2023/08/05 12:15:14;;;;;;;9.43;3.30;;;21.60;65.50;;;;;;5031908;28;20047;-69
2023/08/05 12:17:48;;;;;;;5.97;2.60;;;21.40;66.90;;;;;;5050516;28;20076;-69
2023/08/05 12:20:19;;;;;;;5.72;2.60;;;21.10;67.50;;;;;;5055315;28;20091;-69
2023/08/05 12:22:45;;;;;;;7.30;3.10;;;20.90;68.30;;;;;;5053470;28;20025;-68
2023/08/05 12:25:12;;;;;;;7.57;3.38;;;20.80;68.90;;;;;;5052820;28;20029;-68
2023/08/05 12:27:38;;;;;;;7.22;3.53;;;20.60;69.50;;;;;;5030106;28;20107;-68
2023/08/05 12:30:06;;;;;;;7.18;3.40;;;20.50;70.10;;;;;;5052173;28;20115;-68
2023/08/05 12:32:36;;;;;;;6.63;3.38;;;20.40;70.40;;;;;;5051097;28;20112;-68
2023/08/05 12:35:03;;;;;;;7.22;3.83;;;20.30;70.90;;;;;;5051507;28;20055;-69
2023/08/05 12:37:30;;;;;;;8.45;3.60;;;20.30;71.30;;;;;;5033612;28;20020;-73
2023/08/05 12:39:55;;;;;;;7.10;3.53;;;20.20;71.40;;;;;;5053397;28;20025;-68
2023/08/05 12:42:21;;;;;;;6.95;3.90;;;20.20;71.40;;;;;;5049407;28;20495;-69
2023/08/05 12:44:47;;;;;;;6.53;3.53;;;20.20;71.60;;;;;;5051471;28;20025;-69
2023/08/05 12:47:13;;;;;;;6.80;3.72;;;20.20;71.70;;;;;;5048016;28;20457;-69